Terminal Aerodrome Forecast
Issued by NWS Billings, MT

Home | Current Version | Previous Version | Text Only | Print | Product List | Glossary On
Versions: 1 2 3 4 5 6 7 8 9 10 11 12 13
000
FTUS45 KBYZ 231131
TAFMLS
TAF
KMLS 231131Z 2312/2412 33015KT P6SM FEW100
     FM231400 30018G27KT P6SM SKC
     FM240200 35010KT P6SM FEW150
     FM240600 VRB05KT P6SM FEW120=

USA.gov is the U.S. government's official web portal to all federal, state and local government web resources and services.